Stations météo

réclame
Mon MeteoGroup
Nieuw Beerta aws, Pays-Bas (6286): Température de l'air & dewpoint: 19.11.2017 02:00:00 - 25.11.2017 02:00:00 (CET)Nieuw Beerta aws, Pays-Bas (6286): Température de l'air 5cm & Température de l'air -5cm: 19.11.2017 02:00:00 - 25.11.2017 02:00:00 (CET)Nieuw Beerta aws, Pays-Bas (6286): Température de l'air -20cm & Température de l'air -100cm: 19.11.2017 02:00:00 - 25.11.2017 02:00:00 (CET)Nieuw Beerta aws, Pays-Bas (6286): Vitesse du vent & gusts: 19.11.2017 02:00:00 - 25.11.2017 02:00:00 (CET)Nieuw Beerta aws, Pays-Bas (6286): Direction du vent: 19.11.2017 02:00:00 - 25.11.2017 02:00:00 (CET)Nieuw Beerta aws, Pays-Bas (6286): Quantités de précipitations: 19.11.2017 02:00:00 - 25.11.2017 02:00:00 (CET)
Date & Time tt [°C] td [°C] tt 5cm [°C] tt -5cm [°C] tt -20cm [°C] tt -100cm [°C] ff [km/h] ff [knt] fx [km/h] fx [knt] dd rr [mm]
25.11.2017 02:00:00 3,0 2,2 2,5 5,5 7,2 10,1 11 6 11 6 SSW 0,0
25.11.2017 01:00:00 2,8 2,2 2,5 5,5 7,3 10,1 11 6 - - SSW 0,0
25.11.2017 00:00:00 3,2 2,5 2,7 5,7 7,4 10,1 14 8 18 10 SSW 0,0
24.11.2017 23:00:00 2,9 2,3 2,6 5,8 7,5 10,1 14 8 14 8 SSW 0,0
24.11.2017 22:00:00 3,1 2,7 2,5 6,0 7,6 10,1 11 6 - - SSW 0,0
24.11.2017 21:00:00 3,7 3,2 3,0 6,2 7,7 10,1 14 8 18 10 SSW 0,0
24.11.2017 20:00:00 3,6 3,0 2,7 6,5 7,8 10,1 11 6 14 8 SSW 0,0
24.11.2017 19:00:00 4,7 4,0 4,2 6,7 7,8 10,1 14 8 - - SSW 0,0
24.11.2017 18:00:00 5,3 4,3 4,3 6,9 7,9 10,1 14 8 18 10 SSW 0,0
24.11.2017 17:00:00 5,4 4,5 4,9 7,2 7,9 10,1 11 6 18 10 WSW 0,0
24.11.2017 16:00:00 6,2 4,7 5,5 7,5 7,9 10,1 11 6 - - SW 0,0
24.11.2017 15:00:00 7,6 5,0 7,2 7,7 7,9 10,1 18 10 22 12 WSW 0,0
24.11.2017 14:00:00 7,6 5,0 7,4 7,7 7,9 10,1 18 10 25 14 SW 0,0
24.11.2017 13:00:00 7,8 5,4 7,7 7,5 7,8 10,1 18 10 - - SSW 0,0
24.11.2017 12:00:00 7,4 4,9 7,1 7,3 7,8 10,1 11 6 25 14 S 0,2
24.11.2017 11:00:00 6,9 5,3 6,8 7,2 7,8 10,1 22 12 32 18 WSW 0,2
24.11.2017 10:00:00 6,7 5,8 6,6 7,1 7,9 10,1 11 6 - - SW 0,0
24.11.2017 09:00:00 6,6 5,7 6,4 7,1 7,9 10,1 14 8 18 10 SSW 0,0
24.11.2017 08:00:00 6,6 5,6 6,4 7,1 7,9 10,1 14 8 22 12 S 0,0
24.11.2017 07:00:00 6,9 5,4 6,6 7,1 7,9 10,1 18 10 - - SSW 0,1
24.11.2017 06:00:00 7,0 5,7 6,6 7,1 7,9 10,1 11 6 14 8 SSW 0,0
24.11.2017 05:00:00 7,1 5,6 6,8 7,1 8,0 10,1 11 6 22 12 SSW 0,0
24.11.2017 04:00:00 6,9 5,3 6,6 7,1 8,0 10,1 11 6 - - S 0,0
24.11.2017 03:00:00 7,3 5,3 6,8 7,1 8,1 10,1 14 8 25 14 SSW 0,0
24.11.2017 02:00:00 7,3 5,2 6,7 7,0 8,1 10,1 18 10 25 14 SSW 0,0
24.11.2017 01:00:00 7,2 5,1 6,5 7,0 8,2 10,1 18 10 - - SSW 0,0
24.11.2017 00:00:00 6,6 4,6 5,8 7,1 8,3 10,1 22 12 32 18 SSW 0,0
23.11.2017 23:00:00 6,9 4,5 6,1 7,3 8,4 10,1 25 14 32 18 SSW 0,0
23.11.2017 22:00:00 6,7 4,2 5,9 7,4 8,5 10,1 25 14 - - SSW 0,0
23.11.2017 21:00:00 6,7 4,3 5,8 7,7 8,6 10,1 22 12 29 16 SSW 0,0
23.11.2017 20:00:00 7,1 4,4 6,4 8,0 8,7 10,1 22 12 36 19 SSW 0,0
23.11.2017 19:00:00 8,0 5,6 6,9 8,3 8,7 10,1 22 12 - - SSW 0,0
23.11.2017 18:00:00 8,2 6,7 7,6 8,6 8,7 10,1 18 10 29 16 SW 0,0
23.11.2017 17:00:00 8,6 7,5 8,0 9,0 8,6 10,1 18 10 29 16 SW 0,0
23.11.2017 16:00:00 9,4 8,1 9,2 9,2 8,6 10,1 25 14 - - WSW 2,7
23.11.2017 15:00:00 12,6 10,8 12,2 9,2 8,5 10,1 32 18 54 29 SSW 0,0
23.11.2017 14:00:00 12,7 10,3 12,3 8,9 8,4 10,1 29 16 43 23 SSW 0,0
23.11.2017 13:00:00 12,2 10,0 12,0 8,7 8,3 10,1 36 19 - - SSW 0,2
23.11.2017 12:00:00 11,9 8,7 11,3 8,4 8,2 10,1 47 25 72 39 SSW 0,1
23.11.2017 11:00:00 12,9 7,4 12,4 8,1 8,2 10,1 47 25 72 39 S 0,0
23.11.2017 10:00:00 12,7 6,4 11,9 7,8 8,2 10,1 40 21 - - S 0,0
23.11.2017 09:00:00 11,1 5,5 10,1 7,7 8,2 10,1 32 18 47 25 S 0,0
23.11.2017 08:00:00 11,3 4,9 10,1 7,6 8,2 10,1 36 19 47 25 S 0,0
23.11.2017 07:00:00 10,8 4,5 10,0 7,5 8,3 10,1 32 18 - - S 0,0
23.11.2017 06:00:00 10,5 4,2 9,5 7,5 8,3 10,1 36 19 47 25 S 0,0
23.11.2017 05:00:00 10,3 4,1 9,2 7,6 8,3 10,1 32 18 43 23 S 0,0
23.11.2017 04:00:00 10,3 4,3 9,3 7,5 8,4 10,1 29 16 - - S 0,0
23.11.2017 03:00:00 10,0 4,2 8,8 7,6 8,5 10,1 29 16 40 21 S 0,0
23.11.2017 02:00:00 9,5 4,2 8,4 7,6 8,5 10,1 25 14 36 19 S 0,0
23.11.2017 01:00:00 9,5 4,0 8,4 7,7 8,6 10,1 29 16 - - S 0,0
23.11.2017 00:00:00 9,6 4,3 8,6 7,9 8,7 10,1 29 16 40 21 S 0,0
22.11.2017 23:00:00 9,1 4,7 8,2 8,0 8,8 10,1 29 16 40 21 S 0,0
22.11.2017 22:00:00 9,4 5,2 8,4 8,2 8,8 10,1 29 16 - - S 0,0
22.11.2017 21:00:00 9,8 5,8 8,8 8,4 8,9 10,2 29 16 47 25 S 0,0
22.11.2017 20:00:00 9,8 6,3 8,9 8,6 9,0 10,2 29 16 40 21 S 0,0
22.11.2017 19:00:00 9,8 6,6 8,9 8,8 9,0 10,2 25 14 - - S 0,0
22.11.2017 18:00:00 9,7 7,1 8,9 9,0 9,0 10,2 25 14 36 19 S 0,0
22.11.2017 17:00:00 9,9 7,5 9,2 9,3 9,0 10,2 25 14 40 21 S 0,0
22.11.2017 16:00:00 10,8 8,3 10,2 9,6 9,0 10,2 25 14 - - S 0,0
22.11.2017 15:00:00 11,8 8,6 11,6 9,7 8,9 10,2 36 19 50 27 SSW 0,0
22.11.2017 14:00:00 11,8 9,0 11,6 9,6 8,8 10,2 36 19 47 25 SSW 0,0
22.11.2017 13:00:00 11,7 9,3 11,5 9,4 8,8 10,2 32 18 - - SSW 0,0
22.11.2017 12:00:00 11,5 9,4 11,2 9,3 8,7 10,2 29 16 47 25 SSW 0,0
22.11.2017 11:00:00 11,0 9,4 10,7 9,1 8,7 10,2 32 18 47 25 SSW 0,0
22.11.2017 10:00:00 10,6 9,5 10,4 9,1 8,6 10,2 32 18 - - SSW 0,1
22.11.2017 09:00:00 10,5 9,5 10,4 9,0 8,6 10,2 29 16 54 29 SSW 0,0
22.11.2017 08:00:00 11,0 9,4 10,6 9,0 8,6 10,2 36 19 50 27 SW 0,0
22.11.2017 07:00:00 10,6 9,7 10,4 9,0 8,6 10,2 36 19 - - SW 0,1
22.11.2017 06:00:00 10,4 9,6 10,2 8,9 8,5 10,2 32 18 50 27 SW 0,0
22.11.2017 05:00:00 10,2 9,5 10,1 8,9 8,5 10,2 32 18 43 23 SSW 0,2
22.11.2017 04:00:00 10,1 9,5 10,0 8,9 8,5 10,3 32 18 - - SSW 0,0
22.11.2017 03:00:00 10,6 9,3 10,3 8,9 8,4 10,3 32 18 43 23 SSW 0,0
22.11.2017 02:00:00 10,2 9,4 10,0 8,9 8,4 10,3 29 16 43 23 SSW 0,1
22.11.2017 01:00:00 10,2 9,3 10,0 8,9 8,4 10,3 32 18 - - SSW 0,0
22.11.2017 00:00:00 10,4 9,2 10,2 8,9 8,3 10,3 25 14 36 19 SSW 0,0
21.11.2017 23:00:00 11,1 9,4 10,7 8,9 8,2 10,3 29 16 40 21 SSW 0,0
21.11.2017 22:00:00 11,2 9,9 10,9 8,9 8,2 10,3 22 12 - - SSW 0,0
21.11.2017 21:00:00 11,3 10,0 10,8 8,9 8,1 10,3 25 14 43 23 SW 0,1
21.11.2017 20:00:00 11,1 10,3 10,8 8,8 8,0 10,3 32 18 47 25 SW 0,6
21.11.2017 19:00:00 11,1 10,5 10,9 8,7 8,0 10,3 29 16 - - SW 0,5
21.11.2017 18:00:00 11,2 10,8 11,1 8,6 7,9 10,3 25 14 32 18 WSW 0,1
21.11.2017 17:00:00 11,1 10,8 10,8 8,6 7,8 10,3 18 10 25 14 SW 0,3
21.11.2017 16:00:00 10,7 10,5 10,6 8,6 7,7 10,4 11 6 - - S 2,7
21.11.2017 15:00:00 10,9 10,7 10,9 8,5 7,5 10,4 11 6 14 8 SSW 1,0
21.11.2017 14:00:00 11,0 10,6 11,0 8,3 7,4 10,4 11 6 18 10 SSW 0,4
21.11.2017 13:00:00 11,0 10,5 11,0 8,1 7,3 10,4 14 8 - - SW 0,3
21.11.2017 12:00:00 10,8 10,3 10,8 7,8 7,2 10,4 11 6 22 12 SW 0,1
21.11.2017 11:00:00 10,5 10,1 10,4 7,6 7,1 10,4 14 8 25 14 WSW 0,0
21.11.2017 10:00:00 10,3 9,7 10,0 7,3 7,0 10,4 22 12 - - WSW 0,2
21.11.2017 09:00:00 9,9 9,4 9,5 7,1 7,0 10,4 18 10 25 14 SW 0,0
21.11.2017 08:00:00 9,4 9,1 9,0 7,0 6,9 10,4 11 6 18 10 SW 0,3
21.11.2017 07:00:00 9,3 9,0 9,0 6,8 6,9 10,4 14 8 - - WSW 0,1
21.11.2017 06:00:00 9,0 8,7 8,5 6,7 6,8 10,4 14 8 18 10 WSW 0,0
21.11.2017 05:00:00 8,6 8,4 8,2 6,7 6,8 10,5 11 6 14 8 WSW 0,1
21.11.2017 04:00:00 7,6 7,5 7,1 6,6 6,7 10,5 7 4 - - W 0,0
21.11.2017 03:00:00 7,4 7,3 7,4 6,6 6,7 10,5 7 4 18 10 NNW 0,1
21.11.2017 02:00:00 9,0 8,9 8,8 6,4 6,6 10,5 14 8 29 16 W 0,5
21.11.2017 01:00:00 9,0 8,6 7,6 6,2 6,6 10,5 18 10 - - W 0,0
21.11.2017 00:00:00 6,6 6,4 6,5 6,1 6,6 10,5 7 4 14 8 SSE 0,1
20.11.2017 23:00:00 6,2 6,1 6,2 6,0 6,6 10,5 7 4 18 10 SE 0,5
20.11.2017 22:00:00 6,0 5,8 6,0 5,9 6,5 10,5 14 8 - - SE 0,0
20.11.2017 21:00:00 5,6 5,2 5,5 5,8 6,5 10,5 14 8 18 10 SSE 0,0
20.11.2017 20:00:00 5,1 4,8 5,1 5,8 6,6 10,5 14 8 22 12 SE 0,3
20.11.2017 19:00:00 4,8 4,3 4,9 5,8 6,6 10,5 18 10 - - SE 1,4
20.11.2017 18:00:00 4,8 4,2 4,8 5,9 6,6 10,5 14 8 22 12 SSE 1,7
20.11.2017 17:00:00 4,7 4,1 4,8 5,9 6,6 10,5 18 10 25 14 SSE 1,2
20.11.2017 16:00:00 4,7 4,1 4,8 6,0 6,5 10,5 18 10 - - SSE 0,8
20.11.2017 15:00:00 5,0 4,1 5,1 6,1 6,5 10,6 22 12 29 16 S 0,5
20.11.2017 14:00:00 5,3 4,4 5,4 6,0 6,5 10,6 22 12 29 16 S 0,6
20.11.2017 13:00:00 5,3 4,4 5,3 5,9 6,4 10,6 14 8 - - S 0,3
20.11.2017 12:00:00 5,0 3,7 5,1 5,8 6,4 10,6 18 10 29 16 SW 0,4
20.11.2017 11:00:00 5,2 4,0 5,3 5,6 6,4 10,6 18 10 25 14 SW 0,2
20.11.2017 10:00:00 4,9 3,7 5,0 5,5 6,4 10,6 18 10 - - WSW 0,4
20.11.2017 09:00:00 5,4 4,1 5,2 5,4 6,4 10,6 22 12 40 21 WSW 0,9
20.11.2017 08:00:00 5,8 3,9 5,5 5,4 6,4 10,6 25 14 36 19 WSW 0,0
20.11.2017 07:00:00 5,5 3,8 5,0 5,4 6,4 10,6 22 12 - - WSW 0,0
20.11.2017 06:00:00 5,0 4,0 4,7 5,4 6,4 10,6 7 4 18 10 WSW 0,1
20.11.2017 05:00:00 5,3 4,1 5,1 5,3 6,4 10,6 18 10 32 18 WSW 0,4
20.11.2017 04:00:00 5,0 3,6 4,6 5,3 6,5 10,6 22 12 - - WSW 0,2
20.11.2017 03:00:00 5,0 3,8 4,6 5,2 6,5 10,6 18 10 25 14 WSW 0,7
20.11.2017 02:00:00 4,2 2,9 3,7 5,3 6,5 10,6 11 6 25 14 WSW 0,0
20.11.2017 01:00:00 5,1 2,7 4,4 5,4 6,6 10,6 18 10 - - W 0,0
20.11.2017 00:00:00 5,3 3,0 4,9 5,4 6,6 10,6 22 12 36 19 W 0,0
19.11.2017 23:00:00 4,6 2,3 4,1 5,5 6,7 10,7 22 12 29 16 W 0,0
19.11.2017 22:00:00 5,5 3,0 5,0 5,6 6,7 10,7 14 8 - - W 0,0
19.11.2017 21:00:00 5,2 2,7 4,7 5,7 6,7 10,7 18 10 54 29 WNW 0,1
19.11.2017 20:00:00 6,1 3,3 5,5 5,8 6,7 10,7 22 12 32 18 WNW 0,0
19.11.2017 19:00:00 6,3 3,6 5,6 5,9 6,8 10,7 29 16 - - WNW 0,2
19.11.2017 18:00:00 6,5 3,4 6,0 6,1 6,7 10,7 25 14 43 23 WNW 0,0
19.11.2017 17:00:00 6,6 4,2 6,1 6,3 6,7 10,7 25 14 50 27 WNW 0,2
19.11.2017 16:00:00 7,4 4,0 6,9 6,4 6,6 10,7 32 18 - - WNW 0,1
19.11.2017 15:00:00 7,8 3,6 7,5 6,4 6,5 10,7 36 19 58 31 WNW 0,0
19.11.2017 14:00:00 8,4 3,5 8,1 6,4 6,5 10,7 36 19 54 29 WNW 0,2
19.11.2017 13:00:00 9,1 4,4 8,8 6,1 6,4 10,7 36 19 - - WNW 0,0
19.11.2017 12:00:00 8,5 3,6 7,6 5,8 6,3 10,7 32 18 54 29 WNW 0,0
19.11.2017 11:00:00 7,3 3,4 7,1 5,4 6,3 10,7 36 19 65 35 NW 0,2
19.11.2017 10:00:00 7,6 4,3 6,5 5,1 6,3 10,7 29 16 - - W 0,2
19.11.2017 09:00:00 6,4 4,0 5,8 4,9 6,3 10,7 29 16 47 25 W 0,1
19.11.2017 08:00:00 5,6 3,1 4,9 4,9 6,4 10,7 29 16 43 23 W 0,0
19.11.2017 07:00:00 5,6 2,5 4,6 4,8 6,4 10,7 29 16 - - W 0,0
19.11.2017 06:00:00 5,2 2,3 4,5 4,9 6,4 10,7 32 18 43 23 W 0,1
19.11.2017 05:00:00 4,8 2,8 4,1 4,9 6,5 10,7 22 12 43 23 W 0,1
19.11.2017 04:00:00 5,2 3,4 4,0 4,9 6,5 10,7 29 16 - - W 0,1
19.11.2017 03:00:00 4,4 2,7 4,0 4,9 6,6 10,7 25 14 40 21 WSW 0,3
19.11.2017 02:00:00 3,9 2,0 3,6 4,8 6,7 10,7 18 10 29 16 WSW 0,4

tt = Température de l'air
td = dewpoint
tt 5cm = Température de l'air 5cm
tt -5cm = Température de l'air -5cm
tt -20cm = Température de l'air -20cm
tt -100cm = Température de l'air -100cm
ff = Vitesse du vent
fx = gusts
dd = Direction du vent
rr = Quantités de précipitations

stations d'obs. à proximité